Terminal Aerodrome Forecast
Issued by NWS Sioux Falls, SD

Home | Current Version | Previous Version | Text Only | Print | Product List | Glossary On
Versions: 1 2 3 4 5 6 7 8 9 10 11 12 13 14 15 16 17 18 19 20 21 22 23
000
FTUS43 KFSD 171344 AAA
TAFHON
TAF AMD
KHON 171344Z 1714/1812 VRB03KT 2SM BR BKN002
     FM171500 VRB04KT 5SM BR SCT010
     FM171600 10005KT P6SM SCT100
     FM180000 10005KT P6SM BKN100
     FM180600 14007KT P6SM BKN100 OVC250=

USA.gov is the U.S. government's official web portal to all federal, state and local government web resources and services.